Time;durP1;ratioP1;P1;durP2;ratioP2;P2;SDS_P1;SDS_P2;PMS_P1;PMS_P2;Temp;Humidity;BMP_temperature;BMP_pressure;BME280_temperature;BME280_humidity;BME280_pressure;Samples;Min_cycle;Max_cycle;Signal;HPM_P1;HPM_P2
2022/03/08 00:00:31;;;;;;;27.42;18.70;;;0.80;69.70;;;;;;5113967;28;20311;-69
2022/03/08 00:02:58;;;;;;;25.63;16.90;;;0.80;69.90;;;;;;5113623;28;20205;-69
2022/03/08 00:05:26;;;;;;;29.08;18.27;;;0.80;70.20;;;;;;5113806;28;20201;-69
2022/03/08 00:07:53;;;;;;;26.95;17.90;;;0.70;69.90;;;;;;5113288;28;20574;-70
2022/03/08 00:10:20;;;;;;;31.92;19.27;;;0.70;70.10;;;;;;5113321;28;20226;-69
2022/03/08 00:12:48;;;;;;;29.48;18.38;;;0.70;70.90;;;;;;5113642;28;20201;-67
2022/03/08 00:15:18;;;;;;;27.73;18.40;;;0.70;71.10;;;;;;5113494;28;20217;-68
2022/03/08 00:17:47;;;;;;;27.92;18.35;;;0.70;70.80;;;;;;5112832;28;20259;-68
2022/03/08 00:20:14;;;;;;;25.73;17.33;;;0.70;71.20;;;;;;5113316;28;20703;-68
2022/03/08 00:22:42;;;;;;;30.02;18.35;;;0.60;71.20;;;;;;5113621;28;20288;-67
2022/03/08 00:25:11;;;;;;;31.50;18.75;;;0.60;71.50;;;;;;5113422;28;20201;-68
2022/03/08 00:27:38;;;;;;;29.20;18.13;;;0.60;71.70;;;;;;5113348;28;20216;-67
2022/03/08 00:30:06;;;;;;;29.70;18.30;;;0.60;72.00;;;;;;5112900;28;20221;-68
2022/03/08 00:32:33;;;;;;;29.55;18.25;;;0.50;72.40;;;;;;5113524;28;20201;-68
2022/03/08 00:35:01;;;;;;;29.40;19.50;;;0.50;72.40;;;;;;5113572;28;20202;-68
2022/03/08 00:37:28;;;;;;;32.20;19.20;;;0.50;72.70;;;;;;5112905;28;20292;-68
2022/03/08 00:39:55;;;;;;;28.73;17.48;;;0.40;72.90;;;;;;5112840;28;20698;-68
2022/03/08 00:42:22;;;;;;;30.23;18.98;;;0.40;72.90;;;;;;5113561;28;20540;-69
2022/03/08 00:44:48;;;;;;;30.75;17.90;;;0.40;74.10;;;;;;5113100;28;20212;-68
2022/03/08 00:47:15;;;;;;;32.03;17.65;;;0.40;73.30;;;;;;5112949;28;20286;-69
2022/03/08 00:49:42;;;;;;;29.83;18.15;;;0.30;73.50;;;;;;5112764;28;20228;-68
2022/03/08 00:52:10;;;;;;;35.13;18.65;;;0.30;73.50;;;;;;5113286;28;20657;-68
2022/03/08 00:54:38;;;;;;;28.67;17.45;;;0.30;73.70;;;;;;5113173;28;20205;-68
2022/03/08 00:57:05;;;;;;;29.50;18.25;;;0.30;74.20;;;;;;5113547;28;20223;-68
2022/03/08 00:59:32;;;;;;;30.15;18.33;;;0.20;74.20;;;;;;5119606;28;20307;-69
2022/03/08 01:02:00;;;;;;;27.20;17.15;;;0.20;74.40;;;;;;5119765;28;20201;-68
2022/03/08 01:04:27;;;;;;;29.95;18.77;;;0.20;75.40;;;;;;5120217;28;20398;-68
2022/03/08 01:06:55;;;;;;;29.70;18.15;;;0.10;75.30;;;;;;5119522;28;20307;-69
2022/03/08 01:09:23;;;;;;;32.17;19.10;;;0.20;75.70;;;;;;5120013;28;20229;-69
2022/03/08 01:11:50;;;;;;;28.50;18.17;;;0.20;75.40;;;;;;5119967;28;20224;-69
2022/03/08 01:14:17;;;;;;;29.35;17.35;;;0.20;75.00;;;;;;5119688;28;20203;-68
2022/03/08 01:16:44;;;;;;;29.83;18.77;;;0.20;75.20;;;;;;5119361;28;20217;-69
2022/03/08 01:19:11;;;;;;;30.05;19.05;;;0.20;75.90;;;;;;5119526;28;20223;-69
2022/03/08 01:21:38;;;;;;;29.98;19.60;;;0.20;75.90;;;;;;5119360;28;20207;-68
2022/03/08 01:24:06;;;;;;;29.88;18.75;;;0.20;75.60;;;;;;5119680;28;20240;-70
2022/03/08 01:26:34;;;;;;;31.42;18.38;;;0.20;76.20;;;;;;5119201;27;20220;-69
2022/03/08 01:29:03;;;;;;;29.75;18.45;;;0.20;76.20;;;;;;5119094;27;20779;-70
2022/03/08 01:31:30;;;;;;;30.23;18.80;;;0.30;76.30;;;;;;5119222;28;20713;-69
2022/03/08 01:33:57;;;;;;;32.70;19.05;;;0.20;76.30;;;;;;5119955;28;20588;-70
2022/03/08 01:36:25;;;;;;;28.52;19.08;;;0.10;76.10;;;;;;5119241;28;20253;-70
2022/03/08 01:38:52;;;;;;;27.85;18.35;;;0.10;76.40;;;;;;5119428;28;20205;-70
2022/03/08 01:41:19;;;;;;;32.20;19.30;;;0.10;76.60;;;;;;5119658;28;20267;-70
2022/03/08 01:43:48;;;;;;;28.00;17.98;;;0.00;76.20;;;;;;5119650;28;20404;-70
2022/03/08 01:46:18;;;;;;;25.23;16.90;;;0.00;76.70;;;;;;5119458;28;20197;-70
2022/03/08 01:48:45;;;;;;;32.25;19.77;;;0.00;76.90;;;;;;5119496;27;20182;-70
2022/03/08 01:51:15;;;;;;;29.55;18.70;;;0.00;76.90;;;;;;5119060;28;20789;-70
2022/03/08 01:53:42;;;;;;;29.05;18.40;;;-0.10;76.70;;;;;;5119631;28;20269;-70
2022/03/08 01:56:10;;;;;;;29.33;18.73;;;-0.10;76.80;;;;;;5119430;28;20282;-70
2022/03/08 01:58:37;;;;;;;30.15;16.25;;;-0.10;76.70;;;;;;5118986;28;20668;-69
2022/03/08 02:01:07;;;;;;;30.40;17.23;;;-0.10;77.10;;;;;;5119282;28;20227;-68
2022/03/08 02:03:34;;;;;;;30.50;17.30;;;-0.10;77.10;;;;;;5119310;28;20201;-70
2022/03/08 02:06:01;;;;;;;30.52;17.35;;;-0.20;77.10;;;;;;5119014;28;20656;-69
2022/03/08 02:08:28;;;;;;;28.27;16.85;;;-0.20;77.70;;;;;;5118844;28;20568;-69
2022/03/08 02:10:55;;;;;;;26.73;16.50;;;-0.30;77.80;;;;;;5115777;28;20224;-69
2022/03/08 02:13:22;;;;;;;26.50;16.58;;;-0.30;78.40;;;;;;5116114;28;20197;-69
2022/03/08 02:15:49;;;;;;;30.88;18.17;;;-0.40;78.50;;;;;;5115939;28;20221;-69
2022/03/08 02:18:18;;;;;;;28.38;17.10;;;-0.40;78.70;;;;;;5115466;28;20247;-69
2022/03/08 02:20:45;;;;;;;28.88;16.00;;;-0.40;78.90;;;;;;5115299;28;20598;-69
2022/03/08 02:23:14;;;;;;;27.50;16.13;;;-0.40;79.20;;;;;;5116092;28;20197;-69
2022/03/08 02:25:41;;;;;;;31.42;18.45;;;-0.40;79.30;;;;;;5115930;28;20301;-69
2022/03/08 02:28:08;;;;;;;26.00;16.27;;;-0.50;79.30;;;;;;5115316;28;20590;-69
2022/03/08 02:30:35;;;;;;;30.77;17.98;;;-0.40;79.10;;;;;;5115169;28;20225;-70
2022/03/08 02:33:02;;;;;;;35.63;18.40;;;-0.40;79.20;;;;;;5115736;28;20208;-69
2022/03/08 02:35:31;;;;;;;30.73;18.10;;;-0.30;79.30;;;;;;5115449;28;20682;-69
2022/03/08 02:37:59;;;;;;;25.70;16.65;;;-0.30;79.10;;;;;;5115191;28;20205;-68
2022/03/08 02:40:29;;;;;;;30.48;17.55;;;-0.30;78.60;;;;;;5115386;28;20312;-69
2022/03/08 02:42:57;;;;;;;29.30;17.80;;;-0.40;78.70;;;;;;5116463;28;20202;-69
2022/03/08 02:45:23;;;;;;;27.75;16.63;;;-0.40;78.80;;;;;;5116211;28;20205;-69
2022/03/08 02:47:51;;;;;;;28.90;16.90;;;-0.40;79.30;;;;;;5115982;28;20200;-69
2022/03/08 02:50:19;;;;;;;25.65;16.23;;;-0.50;79.60;;;;;;5116080;28;20221;-68
2022/03/08 02:52:51;;;;;;;25.13;15.98;;;-0.50;79.60;;;;;;5116271;28;20208;-68
2022/03/08 02:55:18;;;;;;;28.42;17.35;;;-0.50;79.80;;;;;;5116062;28;20225;-68
2022/03/08 02:57:47;;;;;;;25.23;16.85;;;-0.50;79.80;;;;;;5115970;28;20222;-69
2022/03/08 03:00:16;;;;;;;32.38;19.15;;;-0.60;80.30;;;;;;5115711;28;20225;-68
2022/03/08 03:02:43;;;;;;;29.10;17.20;;;-0.50;80.50;;;;;;5116661;28;20201;-69
2022/03/08 03:05:11;;;;;;;26.95;17.02;;;-0.50;80.50;;;;;;5115721;28;20210;-69
2022/03/08 03:07:38;;;;;;;28.35;17.35;;;-0.60;80.50;;;;;;5115765;28;20199;-68
2022/03/08 03:10:06;;;;;;;29.65;16.35;;;-0.60;80.90;;;;;;5115411;28;20312;-68
2022/03/08 03:12:33;;;;;;;24.63;15.35;;;-0.60;80.90;;;;;;5115712;28;20210;-68
2022/03/08 03:15:01;;;;;;;28.15;16.23;;;-0.60;80.90;;;;;;5115875;28;20209;-69
2022/03/08 03:17:28;;;;;;;25.90;16.52;;;-0.60;81.00;;;;;;5115386;28;20695;-69
2022/03/08 03:19:55;;;;;;;30.25;16.77;;;-0.70;81.10;;;;;;5115227;28;20228;-68
2022/03/08 03:22:22;;;;;;;27.60;15.88;;;-0.70;81.20;;;;;;5115148;28;20227;-69
2022/03/08 03:24:49;;;;;;;23.00;13.60;;;-0.60;81.40;;;;;;5115562;28;20201;-68
2022/03/08 03:27:15;;;;;;;24.13;15.02;;;-0.60;81.40;;;;;;5115241;28;20627;-69
2022/03/08 03:29:42;;;;;;;28.42;16.42;;;-0.70;81.60;;;;;;5115009;28;20226;-69
2022/03/08 03:32:10;;;;;;;26.10;17.05;;;-0.70;82.30;;;;;;5115632;28;20207;-69
2022/03/08 03:34:37;;;;;;;29.55;16.70;;;-0.70;82.70;;;;;;5115358;28;20288;-69
2022/03/08 03:37:04;;;;;;;29.60;18.05;;;-0.70;82.80;;;;;;5115246;28;20286;-69
2022/03/08 03:39:31;;;;;;;26.88;16.40;;;-0.70;82.60;;;;;;5115281;28;20563;-69
2022/03/08 03:41:58;;;;;;;29.40;17.33;;;-0.70;83.00;;;;;;5115096;28;20612;-69
2022/03/08 03:44:25;;;;;;;30.83;16.95;;;-0.70;83.30;;;;;;5114892;28;20206;-69
2022/03/08 03:46:52;;;;;;;28.00;17.00;;;-0.70;83.20;;;;;;5115102;28;20289;-68
2022/03/08 03:49:20;;;;;;;26.63;15.48;;;-0.70;82.60;;;;;;5115064;28;20288;-69
2022/03/08 03:51:50;;;;;;;27.92;16.67;;;-0.70;82.00;;;;;;5115227;28;20647;-68
2022/03/08 03:54:17;;;;;;;26.48;16.17;;;-0.60;82.70;;;;;;5114962;28;20197;-68
2022/03/08 03:56:44;;;;;;;24.15;15.90;;;-0.60;82.60;;;;;;5114905;28;20225;-68
2022/03/08 03:59:11;;;;;;;26.63;15.45;;;-0.60;82.60;;;;;;5114995;28;20212;-68
2022/03/08 04:01:38;;;;;;;27.52;16.48;;;-0.60;82.80;;;;;;5114668;28;20304;-68
2022/03/08 04:04:05;;;;;;;29.25;16.13;;;-0.60;83.00;;;;;;5114723;28;20212;-69
2022/03/08 04:06:34;;;;;;;29.33;16.30;;;-0.60;83.10;;;;;;5114918;28;20194;-68
2022/03/08 04:09:01;;;;;;;28.30;15.90;;;-0.60;83.30;;;;;;5114685;28;20205;-68
2022/03/08 04:11:28;;;;;;;35.33;20.40;;;-0.70;83.60;;;;;;5114459;28;20312;-68
2022/03/08 04:13:54;;;;;;;27.92;16.50;;;-0.70;83.50;;;;;;5114625;28;20652;-68
2022/03/08 04:16:22;;;;;;;28.42;15.60;;;-0.70;83.70;;;;;;5114222;28;20227;-69
2022/03/08 04:18:48;;;;;;;25.70;16.70;;;-0.70;84.10;;;;;;5114547;28;20202;-69
2022/03/08 04:21:15;;;;;;;26.23;15.55;;;-0.70;84.10;;;;;;5113948;28;20308;-68
2022/03/08 04:23:44;;;;;;;24.15;15.52;;;-0.80;84.20;;;;;;5114187;28;20202;-68
2022/03/08 04:26:11;;;;;;;25.88;14.80;;;-0.80;84.50;;;;;;5114252;28;20606;-69
2022/03/08 04:28:37;;;;;;;27.00;15.00;;;-0.80;84.50;;;;;;5114566;28;20212;-68
2022/03/08 04:31:04;;;;;;;24.52;14.35;;;-0.70;84.20;;;;;;5114150;28;20217;-69
2022/03/08 04:33:31;;;;;;;27.02;16.17;;;-0.70;84.10;;;;;;5113256;28;20738;-69
2022/03/08 04:35:58;;;;;;;27.90;15.77;;;-0.70;83.80;;;;;;5114255;28;20233;-68
2022/03/08 04:38:25;;;;;;;25.52;15.25;;;-0.60;84.10;;;;;;5114143;28;20778;-69
2022/03/08 04:40:53;;;;;;;26.42;15.45;;;-0.60;84.00;;;;;;5113890;28;20312;-68
2022/03/08 04:43:20;;;;;;;26.25;14.88;;;-0.60;84.60;;;;;;5114218;28;20208;-69
2022/03/08 04:45:46;;;;;;;24.98;15.95;;;-0.50;84.40;;;;;;5113961;28;20833;-69
2022/03/08 04:48:13;;;;;;;29.27;16.95;;;-0.50;84.10;;;;;;5114327;28;20319;-69
2022/03/08 04:50:40;;;;;;;26.52;15.32;;;-0.40;83.70;;;;;;5113569;28;20454;-69
2022/03/08 04:53:07;;;;;;;26.33;15.52;;;-0.40;83.50;;;;;;5114216;28;20190;-69
2022/03/08 04:55:34;;;;;;;24.02;13.80;;;-0.40;82.90;;;;;;5113837;28;20292;-69
2022/03/08 04:58:02;;;;;;;23.00;13.82;;;-0.40;82.60;;;;;;5114048;28;20699;-68
2022/03/08 05:00:29;;;;;;;25.40;13.60;;;-0.50;82.20;;;;;;5113698;28;20228;-68
2022/03/08 05:02:56;;;;;;;20.58;14.23;;;-0.50;81.80;;;;;;5114012;28;20197;-69
2022/03/08 05:05:23;;;;;;;24.27;14.70;;;-0.50;81.50;;;;;;5113991;28;20659;-68
2022/03/08 05:07:49;;;;;;;24.33;15.68;;;-0.50;82.30;;;;;;5113970;28;20292;-69
2022/03/08 05:10:16;;;;;;;26.33;16.10;;;-0.50;82.50;;;;;;5113516;28;20217;-68
2022/03/08 05:12:43;;;;;;;26.25;15.68;;;-0.50;83.10;;;;;;5113924;28;20309;-68
2022/03/08 05:15:12;;;;;;;26.90;15.40;;;-0.60;83.20;;;;;;5113651;28;20291;-69
2022/03/08 05:17:39;;;;;;;24.10;14.85;;;-0.60;83.40;;;;;;5113630;28;20221;-68
2022/03/08 05:20:07;;;;;;;22.05;14.18;;;-0.60;83.30;;;;;;5113666;28;20312;-68
2022/03/08 05:22:34;;;;;;;22.90;14.73;;;-0.60;83.50;;;;;;5113889;28;20571;-68
2022/03/08 05:25:01;;;;;;;24.67;14.30;;;-0.60;82.70;;;;;;5113777;28;20205;-69
2022/03/08 05:27:28;;;;;;;27.23;16.45;;;-0.60;83.00;;;;;;5113791;28;20209;-69
2022/03/08 05:29:54;;;;;;;23.75;15.30;;;-0.60;83.50;;;;;;5113452;28;20221;-68
2022/03/08 05:32:22;;;;;;;18.92;13.85;;;-0.60;83.90;;;;;;5113412;28;20236;-69
2022/03/08 05:34:49;;;;;;;24.05;14.10;;;-0.60;84.20;;;;;;5113824;28;20208;-69
2022/03/08 05:37:16;;;;;;;22.58;13.85;;;-0.60;83.70;;;;;;5113665;28;20228;-68
2022/03/08 05:39:43;;;;;;;17.80;12.40;;;-0.70;83.10;;;;;;5113339;28;20725;-69
2022/03/08 05:42:10;;;;;;;23.88;13.90;;;-0.70;83.20;;;;;;5113662;28;20290;-68
2022/03/08 05:44:38;;;;;;;20.05;13.25;;;-0.70;83.30;;;;;;5116364;28;20229;-68
2022/03/08 05:47:06;;;;;;;20.05;12.35;;;-0.70;83.10;;;;;;5118200;28;20649;-68
2022/03/08 05:49:34;;;;;;;16.52;10.90;;;-0.80;82.70;;;;;;5117150;28;20202;-69
2022/03/08 05:52:01;;;;;;;19.13;11.02;;;-0.80;82.70;;;;;;5117111;28;20201;-69
2022/03/08 05:54:28;;;;;;;15.32;10.50;;;-0.80;82.70;;;;;;5117609;28;20201;-68
2022/03/08 05:56:55;;;;;;;17.17;11.35;;;-0.70;82.30;;;;;;5117211;28;20308;-68
2022/03/08 05:59:21;;;;;;;15.60;10.20;;;-0.80;81.60;;;;;;5117388;28;20586;-68
2022/03/08 06:01:48;;;;;;;18.98;12.38;;;-0.80;81.70;;;;;;5117315;28;20208;-68
2022/03/08 06:04:15;;;;;;;19.25;12.15;;;-0.70;82.10;;;;;;5116982;28;20655;-68
2022/03/08 06:06:43;;;;;;;17.10;11.02;;;-0.80;82.30;;;;;;5117223;28;20237;-68
2022/03/08 06:09:10;;;;;;;15.93;10.32;;;-0.70;82.70;;;;;;5117410;28;20711;-69
2022/03/08 06:11:37;;;;;;;18.08;11.60;;;-0.60;82.50;;;;;;5116545;28;20249;-68
2022/03/08 06:14:04;;;;;;;18.05;11.35;;;-0.60;82.40;;;;;;5117085;28;20201;-68
2022/03/08 06:16:30;;;;;;;17.23;11.68;;;-0.50;82.00;;;;;;5116956;28;20207;-68
2022/03/08 06:18:58;;;;;;;16.38;11.38;;;-0.40;81.80;;;;;;5117310;28;20221;-68
2022/03/08 06:21:25;;;;;;;19.05;11.65;;;-0.50;82.40;;;;;;5116665;28;20630;-69
2022/03/08 06:23:54;;;;;;;20.95;12.75;;;-0.40;82.60;;;;;;5116794;28;20209;-68
2022/03/08 06:26:20;;;;;;;19.15;11.98;;;-0.30;82.50;;;;;;5116520;28;20220;-68
2022/03/08 06:28:47;;;;;;;21.20;13.23;;;-0.20;83.00;;;;;;5116910;28;20288;-68
2022/03/08 06:31:14;;;;;;;21.25;13.35;;;-0.20;82.90;;;;;;5116449;28;20221;-69
2022/03/08 06:33:41;;;;;;;20.92;13.85;;;-0.20;82.30;;;;;;5117153;28;20201;-68
2022/03/08 06:36:08;;;;;;;21.60;13.20;;;-0.10;82.30;;;;;;5116415;28;20201;-68
2022/03/08 06:38:35;;;;;;;25.65;14.40;;;0.00;82.40;;;;;;5117032;28;20244;-68
2022/03/08 06:41:03;;;;;;;22.13;14.25;;;0.00;82.70;;;;;;5116216;28;20253;-69
2022/03/08 06:43:30;;;;;;;25.40;15.80;;;0.10;83.00;;;;;;5116499;28;20202;-69
2022/03/08 06:45:56;;;;;;;23.77;13.90;;;0.10;83.00;;;;;;5116380;28;20202;-69
2022/03/08 06:48:23;;;;;;;24.38;14.60;;;0.10;83.30;;;;;;5116140;28;20207;-68
2022/03/08 06:50:50;;;;;;;24.13;15.13;;;0.10;83.10;;;;;;5115930;28;20227;-68
2022/03/08 06:53:17;;;;;;;26.30;16.50;;;0.10;83.50;;;;;;5116143;28;20685;-68
2022/03/08 06:55:44;;;;;;;25.75;15.13;;;0.20;83.80;;;;;;5115153;28;20212;-68
2022/03/08 06:58:12;;;;;;;24.52;15.10;;;0.20;84.00;;;;;;5116058;28;20228;-68
2022/03/08 07:00:39;;;;;;;25.45;15.32;;;0.10;84.20;;;;;;5115603;28;20773;-69
2022/03/08 07:03:05;;;;;;;24.13;15.68;;;0.20;84.30;;;;;;5116066;28;20609;-69
2022/03/08 07:05:33;;;;;;;22.23;15.43;;;0.20;84.70;;;;;;5115888;28;20206;-68
2022/03/08 07:07:59;;;;;;;26.45;14.80;;;0.20;84.60;;;;;;5115602;28;20197;-69
2022/03/08 07:10:26;;;;;;;23.45;15.07;;;0.20;84.40;;;;;;5116240;28;20316;-68
2022/03/08 07:12:53;;;;;;;28.70;16.58;;;0.30;84.90;;;;;;5115833;28;20292;-68
2022/03/08 07:15:21;;;;;;;29.98;17.02;;;0.30;84.60;;;;;;5116079;28;20205;-68
2022/03/08 07:17:48;;;;;;;22.38;15.52;;;0.40;85.60;;;;;;5117806;27;20225;-68
2022/03/08 07:20:16;;;;;;;24.48;15.90;;;0.30;85.20;;;;;;5120847;27;20308;-68
2022/03/08 07:22:43;;;;;;;24.70;16.05;;;0.40;85.10;;;;;;5114374;28;20671;-68
2022/03/08 07:25:11;;;;;;;22.25;15.25;;;0.40;84.90;;;;;;5114347;28;20205;-68
2022/03/08 07:27:38;;;;;;;22.23;15.68;;;0.50;84.90;;;;;;5114320;28;20202;-68
2022/03/08 07:30:06;;;;;;;23.15;15.90;;;0.50;84.80;;;;;;5113623;28;20243;-68
2022/03/08 07:32:35;;;;;;;24.80;16.38;;;0.40;84.70;;;;;;5114116;28;20209;-68
2022/03/08 07:35:02;;;;;;;23.10;14.45;;;0.50;84.40;;;;;;5113999;28;20204;-68
2022/03/08 07:37:28;;;;;;;21.95;14.15;;;0.50;83.20;;;;;;5113982;28;20225;-68
2022/03/08 07:39:55;;;;;;;24.45;16.20;;;0.50;83.90;;;;;;5113553;28;20249;-69
2022/03/08 07:42:23;;;;;;;23.17;15.90;;;0.60;83.70;;;;;;5113521;28;20256;-68
2022/03/08 07:44:50;;;;;;;25.17;16.15;;;0.60;82.60;;;;;;5113735;28;20201;-68
2022/03/08 07:47:17;;;;;;;22.63;13.48;;;0.60;83.70;;;;;;5114063;28;20229;-68
2022/03/08 07:49:46;;;;;;;20.10;13.98;;;0.70;83.90;;;;;;5113435;28;20308;-68
2022/03/08 07:52:13;;;;;;;23.33;14.20;;;0.80;84.20;;;;;;5113771;28;20205;-68
2022/03/08 07:54:40;;;;;;;17.92;13.07;;;0.90;82.10;;;;;;5113677;28;20203;-68
2022/03/08 07:57:07;;;;;;;22.80;14.25;;;0.90;81.40;;;;;;5113886;28;20306;-68
2022/03/08 07:59:34;;;;;;;18.85;14.15;;;1.10;80.80;;;;;;5113666;28;20227;-68
2022/03/08 08:02:00;;;;;;;24.55;13.45;;;1.10;81.40;;;;;;5113205;28;20284;-68
2022/03/08 08:04:28;;;;;;;27.13;13.85;;;1.20;80.40;;;;;;5113315;28;20201;-68
2022/03/08 08:06:57;;;;;;;20.88;14.02;;;1.30;80.60;;;;;;5113374;28;20208;-68
2022/03/08 08:09:23;;;;;;;21.33;14.13;;;1.40;79.30;;;;;;5113419;28;20201;-68
2022/03/08 08:11:51;;;;;;;21.65;14.35;;;1.50;78.60;;;;;;5113090;28;20207;-68
2022/03/08 08:14:18;;;;;;;21.05;14.52;;;1.60;77.80;;;;;;5113157;28;20206;-68
2022/03/08 08:16:45;;;;;;;19.05;13.52;;;1.70;77.60;;;;;;5113266;28;20201;-68
2022/03/08 08:19:12;;;;;;;20.88;12.73;;;1.70;77.40;;;;;;5113447;28;20225;-68
2022/03/08 08:21:39;;;;;;;21.33;13.35;;;1.80;78.60;;;;;;5113163;28;20237;-68
2022/03/08 08:24:08;;;;;;;21.45;13.70;;;1.80;77.90;;;;;;5113546;28;20201;-68
2022/03/08 08:26:34;;;;;;;16.17;12.02;;;2.00;78.80;;;;;;5113433;28;20213;-69
2022/03/08 08:29:02;;;;;;;21.92;13.50;;;2.00;78.00;;;;;;5113053;28;20303;-69
2022/03/08 08:31:31;;;;;;;22.75;12.82;;;2.10;77.30;;;;;;5112931;27;20589;-68
2022/03/08 08:33:58;;;;;;;20.73;13.13;;;2.20;77.80;;;;;;5113226;28;20625;-68
2022/03/08 08:36:25;;;;;;;15.38;11.55;;;2.30;77.60;;;;;;5113342;28;20201;-68
2022/03/08 08:38:52;;;;;;;19.48;13.45;;;2.40;77.50;;;;;;5113122;28;20272;-69
2022/03/08 08:41:20;;;;;;;17.92;10.93;;;2.60;76.70;;;;;;5112636;28;20220;-68
2022/03/08 08:43:47;;;;;;;14.70;10.30;;;2.80;76.90;;;;;;5112933;28;20283;-68
2022/03/08 08:46:14;;;;;;;14.75;10.68;;;3.00;76.60;;;;;;5113092;28;20283;-68
2022/03/08 08:48:41;;;;;;;16.35;11.05;;;3.20;75.40;;;;;;5112855;28;20201;-68
2022/03/08 08:51:07;;;;;;;14.05;10.35;;;3.30;74.90;;;;;;5112460;28;20228;-70
2022/03/08 08:53:34;;;;;;;14.93;10.45;;;3.40;74.20;;;;;;5112817;28;20209;-70
2022/03/08 08:56:01;;;;;;;12.05;8.95;;;3.40;73.50;;;;;;5112911;28;20202;-70
2022/03/08 08:58:29;;;;;;;13.48;9.95;;;3.60;73.00;;;;;;5112263;28;20221;-70
2022/03/08 09:00:56;;;;;;;12.48;10.23;;;3.70;72.70;;;;;;5112409;28;20225;-70
2022/03/08 09:03:23;;;;;;;11.13;8.95;;;3.70;71.90;;;;;;5112468;28;20663;-69
2022/03/08 09:05:50;;;;;;;13.27;10.15;;;3.80;71.90;;;;;;5112499;28;20293;-69
2022/03/08 09:08:23;;;;;;;13.38;10.10;;;3.90;71.50;;;;;;5112958;28;20200;-69
2022/03/08 09:10:50;;;;;;;13.80;10.32;;;4.00;70.50;;;;;;5113879;28;20226;-69
2022/03/08 09:13:17;;;;;;;13.32;9.43;;;4.10;70.00;;;;;;5113672;28;20197;-69
2022/03/08 09:15:45;;;;;;;12.88;9.23;;;4.30;69.40;;;;;;5113645;28;20210;-69
2022/03/08 09:18:12;;;;;;;12.38;9.45;;;4.50;69.20;;;;;;5113791;28;20217;-69
2022/03/08 09:20:39;;;;;;;12.77;9.57;;;4.70;68.60;;;;;;5117524;28;20711;-69
2022/03/08 09:23:06;;;;;;;13.10;9.15;;;4.80;68.00;;;;;;5117936;28;20212;-69
2022/03/08 09:25:33;;;;;;;12.20;9.18;;;5.00;68.00;;;;;;5117965;28;20204;-69
2022/03/08 09:28:02;;;;;;;20.10;10.10;;;5.10;67.70;;;;;;5117597;28;20205;-69
2022/03/08 09:30:29;;;;;;;11.93;9.65;;;5.20;67.00;;;;;;5117522;28;20225;-68
2022/03/08 09:32:58;;;;;;;11.75;9.10;;;5.50;65.40;;;;;;5117728;28;20197;-68
2022/03/08 09:35:25;;;;;;;11.00;9.63;;;5.40;64.50;;;;;;5117780;28;20334;-69
2022/03/08 09:37:52;;;;;;;12.25;9.45;;;5.40;63.40;;;;;;5117528;28;20247;-69
2022/03/08 09:40:20;;;;;;;10.93;8.75;;;5.50;63.50;;;;;;5117483;28;20232;-68
2022/03/08 09:42:46;;;;;;;9.98;8.32;;;5.40;62.50;;;;;;5117525;28;20202;-69
2022/03/08 09:45:14;;;;;;;11.98;9.25;;;5.40;62.40;;;;;;5117530;28;20224;-69
2022/03/08 09:47:42;;;;;;;11.35;9.00;;;5.50;61.20;;;;;;5117494;28;20205;-69
2022/03/08 09:50:12;;;;;;;10.52;8.50;;;5.60;61.50;;;;;;5117126;28;20217;-69
2022/03/08 09:52:40;;;;;;;11.55;8.32;;;5.70;62.00;;;;;;5117246;28;20197;-68
2022/03/08 09:55:10;;;;;;;12.75;9.65;;;5.70;60.30;;;;;;5117046;28;20201;-69
2022/03/08 09:57:36;;;;;;;12.65;9.30;;;5.80;60.80;;;;;;5117310;28;20288;-69
2022/03/08 10:00:05;;;;;;;14.10;8.95;;;5.80;60.50;;;;;;5116874;28;20259;-69
2022/03/08 10:02:47;;;;;;;11.77;9.32;;;6.00;60.90;;;;;;5117177;28;20227;-69
2022/03/08 10:05:16;;;;;;;11.20;9.35;;;6.20;60.80;;;;;;5117102;28;20205;-69
2022/03/08 10:08:10;;;;;;;10.55;8.60;;;6.40;59.80;;;;;;5117150;28;20197;-69
2022/03/08 10:10:45;;;;;;;11.77;9.48;;;6.50;59.70;;;;;;5116807;28;20214;-69
2022/03/08 10:13:12;;;;;;;11.65;9.50;;;6.50;58.00;;;;;;5117238;28;20188;-69
2022/03/08 10:15:40;;;;;;;9.93;8.93;;;6.60;57.90;;;;;;5116741;28;20205;-69
2022/03/08 10:18:07;;;;;;;9.95;8.80;;;6.80;57.50;;;;;;5116544;28;20211;-69
2022/03/08 10:20:35;;;;;;;10.50;8.63;;;7.50;56.10;;;;;;5116763;28;20248;-69
2022/03/08 10:23:14;;;;;;;10.73;8.70;;;8.40;54.20;;;;;;5116870;28;20207;-69
2022/03/08 10:25:42;;;;;;;11.43;9.00;;;9.30;53.20;;;;;;5116806;28;20262;-69
2022/03/08 10:28:09;;;;;;;15.95;10.52;;;9.90;50.60;;;;;;5116592;28;20205;-69
2022/03/08 10:30:52;;;;;;;10.43;8.80;;;10.20;48.60;;;;;;5115196;28;20226;-69
2022/03/08 10:33:22;;;;;;;9.70;8.30;;;10.40;47.00;;;;;;5116679;28;20205;-69
2022/03/08 10:35:54;;;;;;;10.88;8.63;;;10.80;46.40;;;;;;5116755;28;20205;-69
2022/03/08 10:38:21;;;;;;;10.27;8.10;;;11.30;46.00;;;;;;5116330;28;20197;-70
2022/03/08 10:40:47;;;;;;;8.70;7.85;;;11.80;44.40;;;;;;5116255;28;20232;-69
2022/03/08 10:43:16;;;;;;;9.07;8.15;;;12.30;43.20;;;;;;5116485;28;20211;-70
2022/03/08 10:45:44;;;;;;;9.02;8.00;;;12.50;41.70;;;;;;5116507;28;20545;-69
2022/03/08 10:48:14;;;;;;;9.95;8.70;;;12.50;40.50;;;;;;5116610;28;20201;-69
2022/03/08 10:50:43;;;;;;;8.88;7.97;;;12.00;41.00;;;;;;5116062;28;20312;-69
2022/03/08 10:53:13;;;;;;;9.00;7.90;;;11.40;42.10;;;;;;5116323;28;20198;-69
2022/03/08 10:55:46;;;;;;;9.65;8.07;;;11.60;42.10;;;;;;5116409;28;20201;-69
2022/03/08 10:58:14;;;;;;;9.23;8.32;;;11.70;41.40;;;;;;5116322;28;20209;-69
2022/03/08 11:00:43;;;;;;;12.82;8.35;;;11.50;41.20;;;;;;5115859;28;20221;-69
2022/03/08 11:03:12;;;;;;;10.25;8.18;;;11.40;41.40;;;;;;5115959;28;20205;-69
2022/03/08 11:05:41;;;;;;;8.77;7.55;;;11.80;41.50;;;;;;5115994;28;20204;-69
2022/03/08 11:08:08;;;;;;;9.52;7.65;;;12.00;41.00;;;;;;5116086;28;20566;-69
2022/03/08 11:10:37;;;;;;;7.90;7.10;;;12.10;40.20;;;;;;5115804;28;20213;-69
2022/03/08 11:13:05;;;;;;;8.52;7.72;;;12.50;39.90;;;;;;5115778;28;20205;-69
2022/03/08 11:15:35;;;;;;;8.60;7.72;;;13.00;38.70;;;;;;5115884;28;20237;-69
2022/03/08 11:18:05;;;;;;;7.60;6.88;;;13.40;37.30;;;;;;5115860;28;20289;-69
2022/03/08 11:20:32;;;;;;;8.05;7.25;;;14.30;37.40;;;;;;5115494;28;20233;-69
2022/03/08 11:23:00;;;;;;;8.13;7.32;;;15.40;36.50;;;;;;5115740;28;20212;-70
2022/03/08 11:25:29;;;;;;;8.45;7.63;;;15.90;35.30;;;;;;5115730;28;20197;-70
2022/03/08 11:27:58;;;;;;;8.95;7.75;;;16.60;34.50;;;;;;5115586;28;20213;-70
2022/03/08 11:30:27;;;;;;;7.93;7.18;;;17.10;33.20;;;;;;5115212;28;20221;-69
2022/03/08 11:33:00;;;;;;;9.27;7.95;;;17.30;31.70;;;;;;5115503;27;20237;-69
2022/03/08 11:35:30;;;;;;;8.77;7.50;;;17.80;31.70;;;;;;5115224;28;20182;-70
2022/03/08 11:37:58;;;;;;;8.20;7.40;;;17.80;30.60;;;;;;5115388;28;20286;-70
2022/03/08 11:40:26;;;;;;;7.88;7.18;;;17.80;30.10;;;;;;5115134;28;20229;-69
2022/03/08 11:43:01;;;;;;;8.95;8.05;;;17.70;30.00;;;;;;5114912;28;20205;-69
2022/03/08 11:45:30;;;;;;;7.75;7.05;;;17.60;29.90;;;;;;5115246;28;20205;-69
2022/03/08 11:47:59;;;;;;;8.60;7.80;;;16.80;30.00;;;;;;5115150;28;20260;-69
2022/03/08 11:50:28;;;;;;;8.35;7.45;;;15.60;30.30;;;;;;5114772;28;20580;-69
2022/03/08 11:53:06;;;;;;;7.60;6.90;;;14.60;31.80;;;;;;5114931;28;20252;-69
2022/03/08 11:55:35;;;;;;;8.88;7.97;;;13.90;32.30;;;;;;5115008;28;20292;-69
2022/03/08 11:58:05;;;;;;;9.35;8.45;;;13.30;33.50;;;;;;5115035;28;20292;-69
2022/03/08 12:00:42;;;;;;;9.63;7.75;;;12.60;33.90;;;;;;5114654;28;20229;-69
2022/03/08 12:03:15;;;;;;;9.35;8.30;;;12.20;35.60;;;;;;5115169;28;20186;-69
2022/03/08 12:06:00;;;;;;;11.30;9.32;;;12.00;35.90;;;;;;5115175;28;20254;-69
2022/03/08 12:08:59;;;;;;;10.80;9.05;;;12.10;35.80;;;;;;5114621;28;20292;-69
2022/03/08 12:11:31;;;;;;;10.32;9.05;;;12.50;36.10;;;;;;5114806;28;20232;-69
2022/03/08 12:14:08;;;;;;;9.63;8.07;;;12.40;35.20;;;;;;5114876;28;20201;-69
2022/03/08 12:16:39;;;;;;;9.32;7.90;;;12.80;35.80;;;;;;5115169;28;20201;-70
2022/03/08 12:19:07;;;;;;;9.95;8.95;;;14.20;35.90;;;;;;5115396;28;20219;-69
2022/03/08 12:21:40;;;;;;;9.20;8.30;;;15.10;33.70;;;;;;5114133;28;20257;-69
2022/03/08 12:24:14;;;;;;;10.18;8.20;;;16.10;33.40;;;;;;5114391;28;20655;-70
2022/03/08 12:26:43;;;;;;;9.65;8.73;;;16.80;31.80;;;;;;5114274;28;20578;-70
2022/03/08 12:29:15;;;;;;;9.97;9.00;;;17.40;30.70;;;;;;5114393;28;20197;-70
2022/03/08 12:32:20;;;;;;;9.40;8.50;;;17.80;30.70;;;;;;5114183;28;20902;-70
2022/03/08 12:34:52;;;;;;;9.83;8.83;;;18.50;30.00;;;;;;5114535;28;20473;-70
2022/03/08 12:37:21;;;;;;;10.63;9.63;;;18.30;29.50;;;;;;5114382;28;20438;-70
2022/03/08 12:39:52;;;;;;;10.50;9.40;;;17.90;30.00;;;;;;5113723;28;20985;-69